createdAt,value
2023-03-26T00:01:40.557Z,97901.06
2023-03-26T00:04:07.673Z,97902.69
2023-03-26T00:06:37.803Z,97900.03
2023-03-26T00:09:06.451Z,97904.50
2023-03-26T00:11:33.622Z,97894.25
2023-03-26T00:14:00.544Z,97889.31
2023-03-26T00:16:29.376Z,97893.44
2023-03-26T00:18:57.938Z,97898.78
2023-03-26T00:21:28.223Z,97894.06
2023-03-26T00:23:56.325Z,97887.69
2023-03-26T00:26:24.146Z,97893.44
2023-03-26T00:28:51.398Z,97897.94
2023-03-26T00:31:18.513Z,97900.59
2023-03-26T00:33:45.492Z,97906.75
2023-03-26T00:36:17.679Z,97897.72
2023-03-26T00:38:45.007Z,97903.47
2023-03-26T00:41:23.339Z,97905.72
2023-03-26T00:43:52.067Z,97902.03
2023-03-26T00:46:19.451Z,97896.72
2023-03-26T00:48:46.952Z,97887.69
2023-03-26T00:51:15.668Z,97893.03
2023-03-26T00:53:44.301Z,97883.38
2023-03-26T00:56:11.415Z,97877.03
2023-03-26T00:58:38.864Z,97869.84
2023-03-26T01:01:07.553Z,97857.75
2023-03-26T01:03:36.616Z,97863.25
2023-03-26T01:06:18.174Z,97860.59
2023-03-26T01:08:47.624Z,97859.59
2023-03-26T01:11:20.732Z,97861.44
2023-03-26T01:14:11.162Z,97861.84
2023-03-26T01:16:41.747Z,97870.25
2023-03-26T01:19:13.134Z,97863.50
2023-03-26T01:21:40.013Z,97853.44
2023-03-26T01:24:08.460Z,97859.00
2023-03-26T01:26:44.415Z,97859.19
2023-03-26T01:29:18.912Z,97866.00
2023-03-26T01:31:55.454Z,97858.59
2023-03-26T01:34:42.068Z,97863.13
2023-03-26T01:37:22.249Z,97857.78
2023-03-26T01:39:53.685Z,97855.72
2023-03-26T01:42:41.109Z,97844.22
2023-03-26T01:45:11.616Z,97851.00
2023-03-26T01:47:40.138Z,97854.47
2023-03-26T01:50:07.625Z,97856.53
2023-03-26T01:52:34.546Z,97844.66
2023-03-26T01:55:02.874Z,97836.03
2023-03-26T01:57:30.220Z,97841.16
2023-03-26T02:00:15.676Z,97844.66
2023-03-26T02:03:01.366Z,97845.88
2023-03-26T02:05:31.571Z,97831.50
2023-03-26T02:08:09.727Z,97834.16
2023-03-26T02:10:40.069Z,97828.63
2023-03-26T02:13:07.233Z,97829.03
2023-03-26T02:15:34.562Z,97820.44
2023-03-26T02:18:02.090Z,97823.09
2023-03-26T02:20:30.339Z,97825.56
2023-03-26T02:22:57.643Z,97824.53
2023-03-26T02:25:25.129Z,97825.13
2023-03-26T02:27:52.693Z,97826.56
2023-03-26T02:30:25.759Z,97826.16
2023-03-26T02:32:58.099Z,97826.16
2023-03-26T02:35:26.822Z,97815.50
2023-03-26T02:37:58.927Z,97819.81
2023-03-26T02:40:26.298Z,97816.72
2023-03-26T02:42:53.695Z,97810.59
2023-03-26T02:45:20.647Z,97812.00
2023-03-26T02:48:20.509Z,97811.78
2023-03-26T02:51:00.352Z,97810.75
2023-03-26T02:53:48.149Z,97819.59
2023-03-26T02:56:34.688Z,97806.25
2023-03-26T02:59:33.833Z,97812.81
2023-03-26T03:02:29.561Z,97806.47
2023-03-26T03:05:06.058Z,97809.97
2023-03-26T03:07:39.105Z,97804.84
2023-03-26T03:10:08.569Z,97799.91
2023-03-26T03:13:10.482Z,97797.41
2023-03-26T03:15:38.217Z,97802.97
2023-03-26T03:18:05.395Z,97798.03
2023-03-26T03:20:35.368Z,97797.25
2023-03-26T03:23:02.413Z,97792.28
2023-03-26T03:25:30.324Z,97798.25
2023-03-26T03:27:57.255Z,97792.09
2023-03-26T03:30:24.365Z,97798.69
2023-03-26T03:33:08.590Z,97790.88
2023-03-26T03:35:35.702Z,97778.16
2023-03-26T03:38:02.746Z,97774.44
2023-03-26T03:40:36.958Z,97766.66
2023-03-26T03:43:03.846Z,97765.03
2023-03-26T03:45:40.107Z,97766.66
2023-03-26T03:48:12.308Z,97763.78
2023-03-26T03:50:43.484Z,97761.75
2023-03-26T03:53:22.547Z,97759.25
2023-03-26T03:55:56.464Z,97765.22
2023-03-26T03:58:34.728Z,97765.00
2023-03-26T04:01:11.345Z,97753.53
2023-03-26T04:03:57.010Z,97764.22
2023-03-26T04:06:30.455Z,97758.66
2023-03-26T04:08:57.465Z,97759.28
2023-03-26T04:11:25.204Z,97749.84
2023-03-26T04:14:14.183Z,97754.34
2023-03-26T04:16:59.194Z,97750.25
2023-03-26T04:19:27.641Z,97752.94
2023-03-26T04:21:55.570Z,97749.22
2023-03-26T04:24:24.689Z,97755.38
2023-03-26T04:27:14.613Z,97748.59
2023-03-26T04:29:43.354Z,97743.69
2023-03-26T04:32:30.377Z,97735.47
2023-03-26T04:35:03.283Z,97725.84
2023-03-26T04:37:39.658Z,97731.78
2023-03-26T04:40:15.424Z,97731.00
2023-03-26T04:46:18.567Z,97728.31
2023-03-26T04:48:51.780Z,97718.47
2023-03-26T04:51:22.058Z,97710.66
2023-03-26T04:53:53.646Z,97718.28
2023-03-26T04:56:36.058Z,97720.31
2023-03-26T04:59:41.397Z,97710.69
2023-03-26T05:02:13.203Z,97703.50
2023-03-26T05:05:05.399Z,97693.66
2023-03-26T05:07:34.018Z,97699.41
2023-03-26T05:10:03.601Z,97707.19
2023-03-26T05:12:40.680Z,97696.53
2023-03-26T05:15:18.371Z,97705.16
2023-03-26T05:18:04.519Z,97704.72
2023-03-26T05:20:38.548Z,97702.69
2023-03-26T05:23:08.189Z,97698.97
2023-03-26T05:25:38.047Z,97694.88
2023-03-26T05:28:14.016Z,97695.09
2023-03-26T05:30:53.768Z,97703.06
2023-03-26T05:33:23.361Z,97697.75
2023-03-26T05:36:03.444Z,97698.97
2023-03-26T05:38:32.354Z,97693.84
2023-03-26T05:41:05.238Z,97697.34
2023-03-26T05:43:34.332Z,97689.53
2023-03-26T05:46:13.128Z,97686.06
2023-03-26T05:48:40.536Z,97684.63
2023-03-26T05:51:08.523Z,97691.00
2023-03-26T05:53:36.953Z,97687.91
2023-03-26T05:59:31.746Z,97676.41
2023-03-26T06:02:35.244Z,97668.63
2023-03-26T06:05:22.495Z,97669.84
2023-03-26T06:08:03.128Z,97668.63
2023-03-26T06:10:39.487Z,97659.41
2023-03-26T06:13:08.740Z,97664.13
2023-03-26T06:15:40.638Z,97657.75
2023-03-26T06:18:17.927Z,97655.50
2023-03-26T06:21:09.180Z,97644.03
2023-03-26T06:23:44.866Z,97644.00
2023-03-26T06:26:31.956Z,97640.13
2023-03-26T06:29:17.404Z,97631.91
2023-03-26T06:31:59.539Z,97631.50
2023-03-26T06:34:45.541Z,97632.50
2023-03-26T06:37:12.620Z,97624.34
2023-03-26T06:43:08.051Z,97623.69
2023-03-26T06:45:39.269Z,97620.00
2023-03-26T06:48:33.050Z,97616.94
2023-03-26T06:54:39.596Z,97616.31
2023-03-26T08:17:06.686Z,97534.56
2023-03-26T08:25:34.166Z,97529.22
2023-03-26T08:28:16.068Z,97526.53
2023-03-26T08:30:47.702Z,97524.50
2023-03-26T08:36:07.581Z,97518.09
2023-03-26T08:38:37.901Z,97513.97
2023-03-26T08:55:43.808Z,97501.91
2023-03-26T09:04:28.734Z,97490.63
2023-03-26T09:07:11.648Z,97486.09
2023-03-26T09:09:55.506Z,97483.25
2023-03-26T09:12:31.726Z,97490.47
2023-03-26T09:15:17.407Z,97499.69
2023-03-26T09:17:50.690Z,97486.81
2023-03-26T09:20:28.080Z,97489.09
2023-03-26T09:23:03.448Z,97479.25
2023-03-26T09:25:51.032Z,97482.91
2023-03-26T09:28:43.599Z,97481.66
2023-03-26T09:31:30.054Z,97483.28
2023-03-26T09:34:14.989Z,97482.84
2023-03-26T09:39:40.077Z,97455.56
2023-03-26T09:42:17.523Z,97453.91
2023-03-26T09:44:49.082Z,97447.09
2023-03-26T09:50:10.590Z,97442.13
2023-03-26T09:52:41.800Z,97440.91
2023-03-26T09:55:28.223Z,97451.22
2023-03-26T10:01:14.804Z,97447.56
2023-03-26T10:04:00.872Z,97440.97
2023-03-26T10:06:42.924Z,97452.25
2023-03-26T10:09:12.405Z,97442.63
2023-03-26T10:11:52.686Z,97444.44
2023-03-26T10:14:23.067Z,97438.69
2023-03-26T10:16:50.035Z,97441.19
2023-03-26T10:19:35.780Z,97434.41
2023-03-26T10:22:12.453Z,97430.69
2023-03-26T10:24:54.396Z,97440.31
2023-03-26T10:27:28.498Z,97429.25
2023-03-26T10:30:01.487Z,97426.34
2023-03-26T10:32:45.605Z,97422.25
2023-03-26T10:35:13.873Z,97417.31
2023-03-26T10:37:52.562Z,97421.25
2023-03-26T10:40:43.283Z,97418.75
2023-03-26T10:46:19.347Z,97416.50
2023-03-26T10:48:52.591Z,97421.59
2023-03-26T10:51:25.861Z,97414.00
2023-03-26T10:53:56.102Z,97414.41
2023-03-26T10:56:38.636Z,97413.78
2023-03-26T10:59:07.544Z,97419.53
2023-03-26T11:01:54.632Z,97413.19
2023-03-26T11:04:32.143Z,97411.09
2023-03-26T11:07:17.633Z,97405.53
2023-03-26T11:09:59.808Z,97401.81
2023-03-26T11:15:25.332Z,97403.09
2023-03-26T11:20:46.590Z,97405.53
2023-03-26T11:23:17.346Z,97408.44
2023-03-26T11:26:09.283Z,97409.66
2023-03-26T11:31:32.289Z,97408.44
2023-03-26T11:34:08.420Z,97400.03
2023-03-26T11:36:43.437Z,97407.84
2023-03-26T11:39:23.295Z,97406.81
2023-03-26T11:41:53.540Z,97402.28
2023-03-26T11:47:24.136Z,97395.72
2023-03-26T11:49:56.918Z,97399.41
2023-03-26T11:57:52.929Z,97389.34
2023-03-26T12:08:45.363Z,97385.66
2023-03-26T12:11:20.874Z,97388.72
2023-03-26T12:13:57.122Z,97387.97
2023-03-26T12:16:33.699Z,97393.72
2023-03-26T12:19:09.000Z,97395.34
2023-03-26T12:21:48.667Z,97381.59
2023-03-26T12:24:43.186Z,97369.53
2023-03-26T12:27:22.807Z,97371.19
2023-03-26T12:30:00.429Z,97376.97
2023-03-26T12:32:45.639Z,97376.69
2023-03-26T12:35:37.521Z,97367.69
2023-03-26T12:43:40.240Z,97359.69
2023-03-26T12:44:53.966Z,97358.84
2023-03-26T12:47:58.584Z,97363.06
2023-03-26T12:53:02.916Z,97373.09
2023-03-26T12:55:37.144Z,97353.78
2023-03-26T12:58:24.817Z,97362.25
2023-03-26T13:01:22.073Z,97373.31
2023-03-26T13:07:01.622Z,97370.66
2023-03-26T13:12:24.417Z,97367.56
2023-03-26T13:15:08.323Z,97360.38
2023-03-26T13:17:36.482Z,97368.38
2023-03-26T13:25:51.327Z,97360.22
2023-03-26T13:28:51.428Z,97370.47
2023-03-26T13:34:26.728Z,97363.34
2023-03-26T13:37:06.599Z,97360.06
2023-03-26T13:39:49.798Z,97366.00
2023-03-26T13:45:05.847Z,97360.69
2023-03-26T13:53:15.453Z,97350.94
2023-03-26T13:58:39.148Z,97345.59
2023-03-26T14:04:19.234Z,97339.00
2023-03-26T14:12:54.184Z,97350.50
2023-03-26T14:15:47.607Z,97361.13
2023-03-26T14:24:19.374Z,97358.28
2023-03-26T14:27:07.097Z,97353.78
2023-03-26T14:32:42.974Z,97345.63
2023-03-26T14:35:28.677Z,97358.31
2023-03-26T14:38:14.119Z,97351.16
2023-03-26T14:40:41.073Z,97355.03
2023-03-26T14:43:42.329Z,97341.94
2023-03-26T14:46:28.099Z,97356.91
2023-03-26T14:49:13.899Z,97356.09
2023-03-26T14:51:59.754Z,97343.97
2023-03-26T14:54:34.286Z,97343.97
2023-03-26T14:57:18.109Z,97352.97
2023-03-26T15:00:07.407Z,97348.69
2023-03-26T15:02:51.037Z,97348.50
2023-03-26T15:05:27.409Z,97344.81
2023-03-26T15:08:01.785Z,97347.06
2023-03-26T15:10:41.319Z,97352.59
2023-03-26T15:13:11.224Z,97344.81
2023-03-26T15:15:44.119Z,97341.31
2023-03-26T15:18:21.306Z,97344.81
2023-03-26T15:20:51.103Z,97339.88
2023-03-26T15:23:27.477Z,97335.16
2023-03-26T15:26:12.491Z,97341.09
2023-03-26T15:28:42.967Z,97342.31
2023-03-26T15:31:31.274Z,97346.84
2023-03-26T15:34:20.175Z,97344.16
2023-03-26T15:37:02.318Z,97337.44
2023-03-26T15:39:59.799Z,97338.69
2023-03-26T15:42:37.812Z,97336.25
2023-03-26T15:45:26.854Z,97339.50
2023-03-26T15:48:11.185Z,97338.69
2023-03-26T15:50:38.556Z,97346.91
2023-03-26T15:53:06.953Z,97348.72
2023-03-26T15:55:41.474Z,97347.91
2023-03-26T15:58:17.775Z,97348.94
2023-03-26T16:00:50.595Z,97346.28
2023-03-26T16:03:31.243Z,97355.28
2023-03-26T16:06:07.363Z,97361.63
2023-03-26T16:08:42.973Z,97356.94
2023-03-26T16:11:12.898Z,97353.88
2023-03-26T16:13:43.440Z,97353.47
2023-03-26T16:16:18.992Z,97348.94
2023-03-26T16:18:48.566Z,97346.69
2023-03-26T16:21:35.516Z,97352.25
2023-03-26T16:24:02.796Z,97346.69
2023-03-26T16:26:40.000Z,97350.34
2023-03-26T16:29:16.706Z,97353.25
2023-03-26T16:32:04.007Z,97354.69
2023-03-26T16:34:51.390Z,97348.13
2023-03-26T16:37:36.875Z,97348.13
2023-03-26T16:40:20.972Z,97354.50
2023-03-26T16:42:51.084Z,97352.25
2023-03-26T16:45:24.355Z,97352.25
2023-03-26T16:48:14.176Z,97356.72
2023-03-26T16:50:52.251Z,97354.28
2023-03-26T16:53:24.318Z,97354.28
2023-03-26T16:56:02.888Z,97359.84
2023-03-26T16:58:48.610Z,97362.09
2023-03-26T17:01:34.441Z,97355.13
2023-03-26T17:04:05.442Z,97360.47
2023-03-26T17:06:53.632Z,97359.25
2023-03-26T17:09:39.332Z,97361.09
2023-03-26T17:12:15.111Z,97352.28
2023-03-26T17:14:49.695Z,97360.50
2023-03-26T17:17:22.867Z,97362.72
2023-03-26T17:19:55.461Z,97364.97
2023-03-26T17:22:41.285Z,97362.31
2023-03-26T17:25:29.171Z,97368.25
2023-03-26T17:28:19.717Z,97359.03
2023-03-26T17:30:56.097Z,97367.63
2023-03-26T17:33:28.134Z,97368.66
2023-03-26T17:36:14.251Z,97364.56
2023-03-26T17:38:47.440Z,97362.91
2023-03-26T17:41:17.920Z,97366.19
2023-03-26T17:43:51.936Z,97350.22
2023-03-26T17:46:37.691Z,97351.84
2023-03-26T17:49:14.230Z,97347.13
2023-03-26T17:51:47.304Z,97343.84
2023-03-26T17:54:20.864Z,97344.50
2023-03-26T17:56:48.952Z,97351.88
2023-03-26T17:59:23.652Z,97347.78
2023-03-26T18:01:53.340Z,97352.69
2023-03-26T18:04:24.791Z,97350.22
2023-03-26T18:07:04.257Z,97346.31
2023-03-26T18:09:31.718Z,97344.50
2023-03-26T18:12:24.082Z,97337.91
2023-03-26T18:14:55.501Z,97356.94
2023-03-26T18:17:23.851Z,97348.13
2023-03-26T18:19:55.429Z,97353.47
2023-03-26T18:22:26.772Z,97343.63
2023-03-26T18:24:56.220Z,97342.19
2023-03-26T18:27:23.446Z,97351.81
2023-03-26T18:29:56.595Z,97338.28
2023-03-26T18:32:41.084Z,97348.50
2023-03-26T18:35:19.493Z,97348.94
2023-03-26T18:37:47.565Z,97336.25
2023-03-26T18:40:15.649Z,97348.94
2023-03-26T18:42:47.699Z,97345.66
2023-03-26T18:45:14.619Z,97342.41
2023-03-26T18:47:41.548Z,97339.09
2023-03-26T18:50:15.804Z,97337.84
2023-03-26T18:52:42.900Z,97336.63
2023-03-26T18:55:13.107Z,97333.31
2023-03-26T18:57:42.430Z,97337.38
2023-03-26T19:00:18.742Z,97331.03
2023-03-26T19:02:47.923Z,97336.16
2023-03-26T19:05:15.744Z,97338.19
2023-03-26T19:07:43.400Z,97342.72
2023-03-26T19:10:15.478Z,97350.50
2023-03-26T19:12:43.970Z,97344.75
2023-03-26T19:15:13.063Z,97342.31
2023-03-26T19:17:42.786Z,97330.03
2023-03-26T19:20:15.045Z,97335.34
2023-03-26T19:22:43.614Z,97339.25
2023-03-26T19:25:17.829Z,97330.66
2023-03-26T19:27:45.834Z,97325.16
2023-03-26T19:30:20.158Z,97324.31
2023-03-26T19:32:54.514Z,97324.94
2023-03-26T19:35:22.576Z,97328.41
2023-03-26T19:37:51.486Z,97327.19
2023-03-26T19:40:22.333Z,97318.78
2023-03-26T19:42:50.863Z,97320.22
2023-03-26T19:45:23.161Z,97320.00
2023-03-26T19:47:57.324Z,97319.81
2023-03-26T19:50:30.860Z,97322.69
2023-03-26T19:53:16.836Z,97317.63
2023-03-26T19:56:05.254Z,97321.47
2023-03-26T19:58:35.431Z,97317.38
2023-03-26T20:01:05.968Z,97326.81
2023-03-26T20:03:43.093Z,97332.97
2023-03-26T20:06:14.688Z,97330.53
2023-03-26T20:08:41.714Z,97335.84
2023-03-26T20:11:25.983Z,97337.31
2023-03-26T20:13:53.048Z,97333.19
2023-03-26T20:16:24.227Z,97336.53
2023-03-26T20:18:51.234Z,97338.34
2023-03-26T20:21:18.648Z,97329.94
2023-03-26T20:23:45.542Z,97334.28
2023-03-26T20:26:16.384Z,97324.88
2023-03-26T20:28:48.066Z,97334.09
2023-03-26T20:31:22.250Z,97332.91
2023-03-26T20:33:50.107Z,97326.53
2023-03-26T20:36:34.058Z,97333.53
2023-03-26T20:39:06.337Z,97333.53
2023-03-26T20:41:34.376Z,97341.91
2023-03-26T20:44:03.677Z,97342.94
2023-03-26T20:46:31.757Z,97342.94
2023-03-26T20:48:59.956Z,97341.31
2023-03-26T20:51:28.950Z,97349.13
2023-03-26T20:53:56.445Z,97356.47
2023-03-26T20:56:23.625Z,97353.63
2023-03-26T20:59:03.655Z,97350.16
2023-03-26T21:01:38.338Z,97359.56
2023-03-26T21:04:05.487Z,97358.97
2023-03-26T21:06:32.339Z,97357.94
2023-03-26T21:08:59.326Z,97366.34
2023-03-26T21:11:29.913Z,97366.34
2023-03-26T21:14:15.902Z,97360.22
2023-03-26T21:16:43.121Z,97365.72
2023-03-26T21:19:10.567Z,97365.72
2023-03-26T21:21:37.412Z,97367.31
2023-03-26T21:24:20.573Z,97364.03
2023-03-26T21:26:50.574Z,97375.88
2023-03-26T21:29:18.034Z,97361.59
2023-03-26T21:31:45.192Z,97378.16
2023-03-26T21:34:13.497Z,97375.28
2023-03-26T21:36:40.644Z,97378.31
2023-03-26T21:39:07.803Z,97377.72
2023-03-26T21:42:04.739Z,97387.91
2023-03-26T21:44:33.358Z,97378.09
2023-03-26T21:47:00.542Z,97388.72
2023-03-26T21:49:27.772Z,97380.97
2023-03-26T21:51:54.814Z,97387.06
2023-03-26T21:54:26.400Z,97386.06
2023-03-26T21:57:01.566Z,97392.81
2023-03-26T21:59:58.654Z,97391.19
2023-03-26T22:02:28.833Z,97395.03
2023-03-26T22:05:04.168Z,97415.84
2023-03-26T22:07:34.543Z,97412.00
2023-03-26T22:10:01.352Z,97408.91
2023-03-26T22:12:28.196Z,97409.06
2023-03-26T22:14:55.037Z,97415.41
2023-03-26T22:17:23.071Z,97413.09
2023-03-26T22:19:49.982Z,97402.66
2023-03-26T22:22:16.837Z,97426.59
2023-03-26T22:24:44.133Z,97412.47
2023-03-26T22:27:12.967Z,97406.16
2023-03-26T22:29:40.012Z,97429.03
2023-03-26T22:32:06.957Z,97440.63
2023-03-26T22:34:35.972Z,97431.25
2023-03-26T22:37:02.800Z,97415.34
2023-03-26T22:39:29.744Z,97423.44
2023-03-26T22:41:56.611Z,97420.19
2023-03-26T22:44:23.711Z,97432.16
2023-03-26T22:46:51.743Z,97427.94
2023-03-26T22:49:18.788Z,97438.56
2023-03-26T22:51:45.584Z,97451.03
2023-03-26T22:54:12.410Z,97433.88
2023-03-26T22:56:39.486Z,97437.31
2023-03-26T22:59:06.412Z,97439.56
2023-03-26T23:01:33.349Z,97430.13
2023-03-26T23:04:00.284Z,97424.44
2023-03-26T23:06:27.207Z,97435.56
2023-03-26T23:08:55.065Z,97417.66
2023-03-26T23:11:24.617Z,97433.94
2023-03-26T23:13:51.823Z,97421.13
2023-03-26T23:16:20.374Z,97419.97
2023-03-26T23:18:47.764Z,97424.03
2023-03-26T23:21:16.218Z,97422.47
2023-03-26T23:23:43.080Z,97424.56
2023-03-26T23:26:10.923Z,97432.16
2023-03-26T23:28:38.356Z,97430.31
2023-03-26T23:31:06.786Z,97438.47
2023-03-26T23:33:35.651Z,97427.84
2023-03-26T23:36:07.186Z,97425.75
2023-03-26T23:38:43.572Z,97417.13
2023-03-26T23:41:15.461Z,97435.31
2023-03-26T23:43:54.192Z,97440.69
2023-03-26T23:46:23.905Z,97417.22
2023-03-26T23:48:51.521Z,97413.31
2023-03-26T23:51:20.316Z,97425.59
2023-03-26T23:53:47.912Z,97424.56
2023-03-26T23:56:15.451Z,97426.00
2023-03-26T23:58:43.083Z,97412.31
